Relevés horaires Mottec (Suisse)


Relevés horaires à Mottec - Samedi 14 Juill. 2018
Heure UTC1 Température [°C] Vent [km/h] Hum. [%] Pres.4 [hPa] Visi. [Km] Nébu. [octa] Préc.5 [mm] Cond.
2m. Res. Ros. Dir.2 Vit. Moy. Raf.3
23:00 10.0 9.6 9.9 S 5.6 -- -- 99 850 -- -- -- --
22:00 10.1 10.1 10.0 NNO 1.9 -- -- 99 850 -- -- -- --
21:00 10.8 10.5 10.4 SE 5.6 -- 24.1 97 850(0.2/3h) -- -- -- --
20:00 11.0 10.7 10.8 SSE 5.6 -- -- 99 850 -- -- -- --
19:00 11.4 11.4 11.2 S 3.7 -- -- 99 850 -- -- -- --
18:00 11.9 11.8 11.4 SSE 5.6 -- 25.9 97 850(1.2/3h) -- -- 5/12h
--
17:00 15.4 15.4 11.0 S 3.7 -- -- 75 850 -- -- -- --
16:00 16.9 16.8 10.3 N 11.1 -- -- 65 850 -- -- -- --
15:00 16.7 16.7 14.1 SSO 7.4 -- 25.9 85 850(0.5/3h) -- -- -- --
14:00 14.1 14.1 11.3 NO 5.6 -- -- 83 850 -- -- -- --
13:00 21.6 21.6 5.4 N 9.3 -- -- 35 850 -- -- -- --
12:00 21.7 21.7 5.9 N 13.0 -- 27.8 36 850(-1.1/3h) -- -- 0/6h
--
11:00 21.4 21.4 6.5 N 11.1 -- -- 38 850 -- -- -- --
10:00 20.4 20.4 8.0 NNO 11.1 -- -- 45 850 -- -- -- --
09:00 18.8 18.8 8.0 N 11.1 -- 16.7 49 850(-0.5/3h) -- -- -- --
08:00 16.0 16.0 8.6 ESE 5.6 -- -- 61 850 -- -- -- --
07:00 12.0 11.9 8.0 SE 5.6 -- -- 76 850 -- -- -- --
06:00 10.3 10.3 7.3 S 1.9 -- 16.7 82 850(-0.1/3h) -- -- 0/12h
0/24h
--
05:00 10.4 9.2 6.7 S 9.3 -- -- 78 850 -- -- -- --
04:00 11.1 9.8 6.5 S 11.1 -- -- 73 850 -- -- -- --
03:00 12.4 11.9 6.4 S 7.4 -- 16.7 67 850(-0.3/3h) -- -- -- --
02:00 12.0 11.9 6.3 S 5.6 -- -- 68 850 -- -- -- --
01:00 11.2 11.2 6.0 S 3.7 -- -- 70 850 -- -- -- --
00:00 12.0 11.1 6.7 S 9.3 -- 16.7 70 850(-0.1/3h) -- -- 0/6h
--

1 Coordinated Universal Time. Actuellement il est 18:00 locale et 16:00 UTC.

2 Le vent souffle depuis la direction indiquée vers la direction oposée.

3 Les rafales max. sont disponible 40 min après l'heure du relevé.

4 Pour les stations d'altitude (plus de 600m) le géopotentiel du niveau le plus proche de la pression obligatoire est indiqué.

5 Les stations disposant d'un diffuseur peuvent indiquer "trace". Cela signifie que des précipitations ont touchés le sol mais que la quantité est inférieure à 0.1 mm.

Récapitulatif de la journée
Température [°C] Vent [km/h] Ensoleillement4 [h] Precipitations totale5 [mm] Pression [Hpa]
Min1 Max.2 Moy.3 Max. Min Max.
9.3 22.3 0 27.8 5 h 36 min 7.5 850.0 850.0

1 Température minimale relevée entre 18:00 UTC la veille et 18:00 UTC le jour donné.

2 Température maximale relevée entre 06:00 UTC le jour donné et 06:00 UTC le lendemain.

3 Vent moyen de la journée basé sur les relevés horaires.

4 Ensoleillement en heures relevé entre 06:00 UTC la veille et 06:00 UTC le jour donné.

5 Précipitations totales tombées entre 06:00 UTC la jour donné et 06:00 UTC le lendemain.

Graphiques horaires